sensor_id;sensor_type;location;lat;lon;timestamp;P1;durP1;ratioP1;P2;durP2;ratioP2
64887;SDS011;51386;53.082;8.816;2022-10-16T00:00:07;2.77;;;1.83;;
64887;SDS011;51386;53.082;8.816;2022-10-16T00:02:36;3.97;;;2.20;;
64887;SDS011;51386;53.082;8.816;2022-10-16T00:05:03;5.00;;;2.43;;
64887;SDS011;51386;53.082;8.816;2022-10-16T00:07:31;3.33;;;1.47;;
64887;SDS011;51386;53.082;8.816;2022-10-16T00:09:59;4.17;;;1.93;;
64887;SDS011;51386;53.082;8.816;2022-10-16T00:12:27;3.47;;;2.40;;
64887;SDS011;51386;53.082;8.816;2022-10-16T00:14:54;2.63;;;1.73;;
64887;SDS011;51386;53.082;8.816;2022-10-16T00:17:22;2.33;;;2.00;;
64887;SDS011;51386;53.082;8.816;2022-10-16T00:19:49;4.20;;;2.10;;
64887;SDS011;51386;53.082;8.816;2022-10-16T00:22:35;1.87;;;1.70;;
64887;SDS011;51386;53.082;8.816;2022-10-16T00:25:02;1.90;;;1.70;;
64887;SDS011;51386;53.082;8.816;2022-10-16T00:27:32;3.03;;;1.77;;
64887;SDS011;51386;53.082;8.816;2022-10-16T00:30:00;3.70;;;2.43;;
64887;SDS011;51386;53.082;8.816;2022-10-16T00:32:27;5.30;;;2.10;;
64887;SDS011;51386;53.082;8.816;2022-10-16T00:34:54;2.20;;;1.97;;
64887;SDS011;51386;53.082;8.816;2022-10-16T00:37:22;3.47;;;2.10;;
64887;SDS011;51386;53.082;8.816;2022-10-16T00:39:49;4.23;;;1.60;;
64887;SDS011;51386;53.082;8.816;2022-10-16T00:42:17;3.40;;;2.20;;
64887;SDS011;51386;53.082;8.816;2022-10-16T00:44:48;4.80;;;1.90;;
64887;SDS011;51386;53.082;8.816;2022-10-16T00:47:20;2.23;;;1.80;;
64887;SDS011;51386;53.082;8.816;2022-10-16T00:49:53;3.67;;;1.97;;
64887;SDS011;51386;53.082;8.816;2022-10-16T00:52:28;3.17;;;2.30;;
64887;SDS011;51386;53.082;8.816;2022-10-16T00:54:56;3.77;;;2.27;;
64887;SDS011;51386;53.082;8.816;2022-10-16T00:57:25;3.20;;;1.73;;
64887;SDS011;51386;53.082;8.816;2022-10-16T00:59:54;1.73;;;1.63;;
64887;SDS011;51386;53.082;8.816;2022-10-16T01:02:21;3.77;;;2.03;;
64887;SDS011;51386;53.082;8.816;2022-10-16T01:04:50;2.20;;;1.97;;
64887;SDS011;51386;53.082;8.816;2022-10-16T01:07:22;3.07;;;2.00;;
64887;SDS011;51386;53.082;8.816;2022-10-16T01:10:07;2.30;;;2.10;;
64887;SDS011;51386;53.082;8.816;2022-10-16T01:12:50;3.73;;;2.10;;
64887;SDS011;51386;53.082;8.816;2022-10-16T01:15:26;2.80;;;1.90;;
64887;SDS011;51386;53.082;8.816;2022-10-16T01:18:00;3.83;;;1.90;;
64887;SDS011;51386;53.082;8.816;2022-10-16T01:20:42;2.33;;;2.13;;
64887;SDS011;51386;53.082;8.816;2022-10-16T01:23:27;4.60;;;1.90;;
64887;SDS011;51386;53.082;8.816;2022-10-16T01:26:13;3.20;;;2.07;;
64887;SDS011;51386;53.082;8.816;2022-10-16T01:29:00;2.73;;;1.93;;
64887;SDS011;51386;53.082;8.816;2022-10-16T01:31:36;3.80;;;1.50;;
64887;SDS011;51386;53.082;8.816;2022-10-16T01:34:08;3.13;;;2.03;;
64887;SDS011;51386;53.082;8.816;2022-10-16T01:36:42;4.07;;;1.80;;
64887;SDS011;51386;53.082;8.816;2022-10-16T01:39:15;2.60;;;1.87;;
64887;SDS011;51386;53.082;8.816;2022-10-16T01:41:51;2.60;;;2.30;;
64887;SDS011;51386;53.082;8.816;2022-10-16T01:44:29;1.90;;;1.80;;
64887;SDS011;51386;53.082;8.816;2022-10-16T01:47:00;3.50;;;1.90;;
64887;SDS011;51386;53.082;8.816;2022-10-16T01:49:33;4.43;;;1.70;;
64887;SDS011;51386;53.082;8.816;2022-10-16T01:52:05;5.60;;;2.23;;
64887;SDS011;51386;53.082;8.816;2022-10-16T01:54:37;5.63;;;1.60;;
64887;SDS011;51386;53.082;8.816;2022-10-16T01:57:10;4.37;;;1.73;;
64887;SDS011;51386;53.082;8.816;2022-10-16T01:59:44;2.87;;;2.10;;
64887;SDS011;51386;53.082;8.816;2022-10-16T02:02:17;4.00;;;2.00;;
64887;SDS011;51386;53.082;8.816;2022-10-16T02:04:49;4.30;;;2.60;;
64887;SDS011;51386;53.082;8.816;2022-10-16T02:07:25;2.97;;;2.10;;
64887;SDS011;51386;53.082;8.816;2022-10-16T02:09:53;3.17;;;2.13;;
64887;SDS011;51386;53.082;8.816;2022-10-16T02:12:23;3.83;;;2.20;;
64887;SDS011;51386;53.082;8.816;2022-10-16T02:14:57;3.60;;;2.07;;
64887;SDS011;51386;53.082;8.816;2022-10-16T02:17:25;3.80;;;2.17;;
64887;SDS011;51386;53.082;8.816;2022-10-16T02:19:54;5.67;;;2.03;;
64887;SDS011;51386;53.082;8.816;2022-10-16T02:22:26;4.10;;;1.97;;
64887;SDS011;51386;53.082;8.816;2022-10-16T02:24:59;3.50;;;2.10;;
64887;SDS011;51386;53.082;8.816;2022-10-16T02:27:35;4.90;;;1.90;;
64887;SDS011;51386;53.082;8.816;2022-10-16T02:30:14;5.40;;;2.03;;
64887;SDS011;51386;53.082;8.816;2022-10-16T02:32:49;5.10;;;2.47;;
64887;SDS011;51386;53.082;8.816;2022-10-16T02:35:19;3.47;;;2.13;;
64887;SDS011;51386;53.082;8.816;2022-10-16T02:37:49;4.87;;;2.27;;
64887;SDS011;51386;53.082;8.816;2022-10-16T02:40:18;2.67;;;1.77;;
64887;SDS011;51386;53.082;8.816;2022-10-16T02:42:51;4.20;;;2.00;;
64887;SDS011;51386;53.082;8.816;2022-10-16T02:45:21;2.50;;;2.20;;
64887;SDS011;51386;53.082;8.816;2022-10-16T02:47:51;3.83;;;2.23;;
64887;SDS011;51386;53.082;8.816;2022-10-16T02:50:18;4.63;;;2.13;;
64887;SDS011;51386;53.082;8.816;2022-10-16T02:52:46;2.27;;;1.93;;
64887;SDS011;51386;53.082;8.816;2022-10-16T02:55:13;3.37;;;2.27;;
64887;SDS011;51386;53.082;8.816;2022-10-16T02:57:41;2.17;;;1.97;;
64887;SDS011;51386;53.082;8.816;2022-10-16T03:00:09;4.17;;;2.33;;
64887;SDS011;51386;53.082;8.816;2022-10-16T03:02:42;3.57;;;2.37;;
64887;SDS011;51386;53.082;8.816;2022-10-16T03:05:09;3.10;;;2.27;;
64887;SDS011;51386;53.082;8.816;2022-10-16T03:07:37;5.73;;;2.30;;
64887;SDS011;51386;53.082;8.816;2022-10-16T03:10:05;3.97;;;2.17;;
64887;SDS011;51386;53.082;8.816;2022-10-16T03:12:33;3.40;;;2.30;;
64887;SDS011;51386;53.082;8.816;2022-10-16T03:15:01;4.00;;;2.20;;
64887;SDS011;51386;53.082;8.816;2022-10-16T03:17:29;3.30;;;2.10;;
64887;SDS011;51386;53.082;8.816;2022-10-16T03:19:59;4.57;;;3.13;;
64887;SDS011;51386;53.082;8.816;2022-10-16T03:22:27;2.50;;;1.97;;
64887;SDS011;51386;53.082;8.816;2022-10-16T03:24:54;3.13;;;2.17;;
64887;SDS011;51386;53.082;8.816;2022-10-16T03:27:21;2.87;;;2.17;;
64887;SDS011;51386;53.082;8.816;2022-10-16T03:29:49;2.73;;;2.20;;
64887;SDS011;51386;53.082;8.816;2022-10-16T03:32:17;2.70;;;2.50;;
64887;SDS011;51386;53.082;8.816;2022-10-16T03:34:44;3.30;;;2.27;;
64887;SDS011;51386;53.082;8.816;2022-10-16T03:37:13;5.40;;;2.73;;
64887;SDS011;51386;53.082;8.816;2022-10-16T03:39:40;2.40;;;2.10;;
64887;SDS011;51386;53.082;8.816;2022-10-16T03:42:08;2.73;;;1.90;;
64887;SDS011;51386;53.082;8.816;2022-10-16T03:44:35;3.00;;;2.70;;
64887;SDS011;51386;53.082;8.816;2022-10-16T03:47:02;6.57;;;3.17;;
64887;SDS011;51386;53.082;8.816;2022-10-16T03:49:30;4.20;;;2.77;;
64887;SDS011;51386;53.082;8.816;2022-10-16T03:51:57;3.53;;;2.93;;
64887;SDS011;51386;53.082;8.816;2022-10-16T03:54:26;6.00;;;2.80;;
64887;SDS011;51386;53.082;8.816;2022-10-16T03:56:53;5.00;;;3.30;;
64887;SDS011;51386;53.082;8.816;2022-10-16T03:59:20;4.70;;;3.60;;
64887;SDS011;51386;53.082;8.816;2022-10-16T04:01:47;4.77;;;3.27;;
64887;SDS011;51386;53.082;8.816;2022-10-16T04:04:15;6.10;;;3.43;;
64887;SDS011;51386;53.082;8.816;2022-10-16T04:06:42;5.57;;;3.70;;
64887;SDS011;51386;53.082;8.816;2022-10-16T04:09:09;7.73;;;3.93;;
64887;SDS011;51386;53.082;8.816;2022-10-16T04:11:38;9.87;;;4.43;;
64887;SDS011;51386;53.082;8.816;2022-10-16T04:14:05;6.13;;;4.53;;
64887;SDS011;51386;53.082;8.816;2022-10-16T04:16:33;4.73;;;3.53;;
64887;SDS011;51386;53.082;8.816;2022-10-16T04:19:00;7.03;;;3.90;;
64887;SDS011;51386;53.082;8.816;2022-10-16T04:21:27;6.37;;;3.80;;
64887;SDS011;51386;53.082;8.816;2022-10-16T04:23:54;5.50;;;4.30;;
64887;SDS011;51386;53.082;8.816;2022-10-16T04:26:22;5.97;;;4.40;;
64887;SDS011;51386;53.082;8.816;2022-10-16T04:28:50;8.70;;;4.80;;
64887;SDS011;51386;53.082;8.816;2022-10-16T04:31:18;6.10;;;4.50;;
64887;SDS011;51386;53.082;8.816;2022-10-16T04:33:45;6.27;;;4.90;;
64887;SDS011;51386;53.082;8.816;2022-10-16T04:36:13;7.67;;;4.90;;
64887;SDS011;51386;53.082;8.816;2022-10-16T04:38:40;7.10;;;5.23;;
64887;SDS011;51386;53.082;8.816;2022-10-16T04:41:07;10.13;;;5.53;;
64887;SDS011;51386;53.082;8.816;2022-10-16T04:43:35;5.47;;;4.93;;
64887;SDS011;51386;53.082;8.816;2022-10-16T04:46:04;9.97;;;5.43;;
64887;SDS011;51386;53.082;8.816;2022-10-16T04:48:31;7.40;;;5.43;;
64887;SDS011;51386;53.082;8.816;2022-10-16T04:50:59;8.13;;;5.83;;
64887;SDS011;51386;53.082;8.816;2022-10-16T04:53:26;8.33;;;5.80;;
64887;SDS011;51386;53.082;8.816;2022-10-16T04:55:53;7.73;;;5.20;;
64887;SDS011;51386;53.082;8.816;2022-10-16T04:58:21;8.37;;;5.67;;
64887;SDS011;51386;53.082;8.816;2022-10-16T05:00:48;6.47;;;5.87;;
64887;SDS011;51386;53.082;8.816;2022-10-16T05:03:17;8.23;;;5.93;;
64887;SDS011;51386;53.082;8.816;2022-10-16T05:05:44;9.90;;;7.10;;
64887;SDS011;51386;53.082;8.816;2022-10-16T05:08:13;7.60;;;6.00;;
64887;SDS011;51386;53.082;8.816;2022-10-16T05:10:42;8.03;;;6.33;;
64887;SDS011;51386;53.082;8.816;2022-10-16T05:13:11;7.13;;;6.10;;
64887;SDS011;51386;53.082;8.816;2022-10-16T05:15:38;9.10;;;6.67;;
64887;SDS011;51386;53.082;8.816;2022-10-16T05:18:06;11.07;;;6.73;;
64887;SDS011;51386;53.082;8.816;2022-10-16T05:20:36;7.87;;;7.03;;
64887;SDS011;51386;53.082;8.816;2022-10-16T05:23:03;8.93;;;7.20;;
64887;SDS011;51386;53.082;8.816;2022-10-16T05:25:30;9.43;;;7.63;;
64887;SDS011;51386;53.082;8.816;2022-10-16T05:27:58;12.60;;;7.20;;
64887;SDS011;51386;53.082;8.816;2022-10-16T05:30:25;12.50;;;8.17;;
64887;SDS011;51386;53.082;8.816;2022-10-16T05:32:52;7.83;;;6.67;;
64887;SDS011;51386;53.082;8.816;2022-10-16T05:35:20;9.63;;;7.30;;
64887;SDS011;51386;53.082;8.816;2022-10-16T05:37:49;8.10;;;7.30;;
64887;SDS011;51386;53.082;8.816;2022-10-16T05:40:16;9.37;;;8.47;;
64887;SDS011;51386;53.082;8.816;2022-10-16T05:42:44;10.40;;;7.60;;
64887;SDS011;51386;53.082;8.816;2022-10-16T05:45:12;7.50;;;6.57;;
64887;SDS011;51386;53.082;8.816;2022-10-16T05:47:39;9.47;;;7.57;;
64887;SDS011;51386;53.082;8.816;2022-10-16T05:50:06;10.03;;;7.80;;
64887;SDS011;51386;53.082;8.816;2022-10-16T05:52:35;8.93;;;7.07;;
64887;SDS011;51386;53.082;8.816;2022-10-16T05:55:04;9.10;;;7.70;;
64887;SDS011;51386;53.082;8.816;2022-10-16T05:57:32;7.60;;;6.77;;
64887;SDS011;51386;53.082;8.816;2022-10-16T05:59:59;8.90;;;6.53;;
64887;SDS011;51386;53.082;8.816;2022-10-16T06:02:27;8.87;;;7.47;;
64887;SDS011;51386;53.082;8.816;2022-10-16T06:04:55;10.00;;;8.30;;
64887;SDS011;51386;53.082;8.816;2022-10-16T06:07:22;12.57;;;8.27;;
64887;SDS011;51386;53.082;8.816;2022-10-16T06:09:51;8.80;;;6.37;;
64887;SDS011;51386;53.082;8.816;2022-10-16T06:12:20;9.00;;;7.00;;
64887;SDS011;51386;53.082;8.816;2022-10-16T06:14:47;8.07;;;7.27;;
64887;SDS011;51386;53.082;8.816;2022-10-16T06:17:15;10.87;;;8.33;;
64887;SDS011;51386;53.082;8.816;2022-10-16T06:19:42;7.23;;;6.53;;
64887;SDS011;51386;53.082;8.816;2022-10-16T06:22:10;8.33;;;6.83;;
64887;SDS011;51386;53.082;8.816;2022-10-16T06:24:37;7.17;;;6.40;;
64887;SDS011;51386;53.082;8.816;2022-10-16T06:27:05;7.40;;;6.63;;
64887;SDS011;51386;53.082;8.816;2022-10-16T06:29:34;8.97;;;7.13;;
64887;SDS011;51386;53.082;8.816;2022-10-16T06:32:01;8.20;;;6.93;;
64887;SDS011;51386;53.082;8.816;2022-10-16T06:34:29;11.33;;;6.57;;
64887;SDS011;51386;53.082;8.816;2022-10-16T06:36:56;8.93;;;7.40;;
64887;SDS011;51386;53.082;8.816;2022-10-16T06:39:23;12.93;;;7.07;;
64887;SDS011;51386;53.082;8.816;2022-10-16T06:41:51;6.93;;;6.23;;
64887;SDS011;51386;53.082;8.816;2022-10-16T06:44:18;8.70;;;6.60;;
64887;SDS011;51386;53.082;8.816;2022-10-16T06:46:47;6.97;;;6.27;;
64887;SDS011;51386;53.082;8.816;2022-10-16T06:49:14;7.70;;;6.80;;
64887;SDS011;51386;53.082;8.816;2022-10-16T06:51:47;7.97;;;6.63;;
64887;SDS011;51386;53.082;8.816;2022-10-16T06:54:15;10.20;;;6.13;;
64887;SDS011;51386;53.082;8.816;2022-10-16T06:56:44;10.67;;;6.63;;
64887;SDS011;51386;53.082;8.816;2022-10-16T06:59:11;6.83;;;6.10;;
64887;SDS011;51386;53.082;8.816;2022-10-16T07:01:38;6.90;;;6.20;;
64887;SDS011;51386;53.082;8.816;2022-10-16T07:04:07;9.83;;;6.87;;
64887;SDS011;51386;53.082;8.816;2022-10-16T07:06:34;6.87;;;6.10;;
64887;SDS011;51386;53.082;8.816;2022-10-16T07:09:03;8.77;;;6.60;;
64887;SDS011;51386;53.082;8.816;2022-10-16T07:11:33;7.77;;;5.73;;
64887;SDS011;51386;53.082;8.816;2022-10-16T07:14:01;9.07;;;6.10;;
64887;SDS011;51386;53.082;8.816;2022-10-16T07:16:30;7.33;;;6.57;;
64887;SDS011;51386;53.082;8.816;2022-10-16T07:18:59;6.67;;;6.07;;
64887;SDS011;51386;53.082;8.816;2022-10-16T07:21:30;9.13;;;5.67;;
64887;SDS011;51386;53.082;8.816;2022-10-16T07:24:03;7.87;;;5.63;;
64887;SDS011;51386;53.082;8.816;2022-10-16T07:26:34;6.37;;;5.77;;
64887;SDS011;51386;53.082;8.816;2022-10-16T07:29:03;6.20;;;5.60;;
64887;SDS011;51386;53.082;8.816;2022-10-16T07:31:30;5.87;;;4.80;;
64887;SDS011;51386;53.082;8.816;2022-10-16T07:33:58;5.37;;;4.73;;
64887;SDS011;51386;53.082;8.816;2022-10-16T07:36:26;5.13;;;4.70;;
64887;SDS011;51386;53.082;8.816;2022-10-16T07:38:55;4.93;;;4.50;;
64887;SDS011;51386;53.082;8.816;2022-10-16T07:41:25;5.83;;;5.07;;
64887;SDS011;51386;53.082;8.816;2022-10-16T07:43:54;5.90;;;5.10;;
64887;SDS011;51386;53.082;8.816;2022-10-16T07:46:26;6.30;;;4.83;;
64887;SDS011;51386;53.082;8.816;2022-10-16T07:48:54;5.33;;;4.83;;
64887;SDS011;51386;53.082;8.816;2022-10-16T07:51:22;6.23;;;4.90;;
64887;SDS011;51386;53.082;8.816;2022-10-16T07:53:51;6.37;;;4.73;;
64887;SDS011;51386;53.082;8.816;2022-10-16T07:56:21;5.37;;;4.83;;
64887;SDS011;51386;53.082;8.816;2022-10-16T07:58:49;4.67;;;4.23;;
64887;SDS011;51386;53.082;8.816;2022-10-16T08:01:17;4.07;;;3.67;;
64887;SDS011;51386;53.082;8.816;2022-10-16T08:03:46;5.67;;;4.27;;
64887;SDS011;51386;53.082;8.816;2022-10-16T08:06:16;5.53;;;3.90;;
64887;SDS011;51386;53.082;8.816;2022-10-16T08:08:52;4.40;;;4.00;;
64887;SDS011;51386;53.082;8.816;2022-10-16T08:11:21;4.80;;;3.73;;
64887;SDS011;51386;53.082;8.816;2022-10-16T08:13:49;4.63;;;3.17;;
64887;SDS011;51386;53.082;8.816;2022-10-16T08:16:16;3.47;;;3.07;;
64887;SDS011;51386;53.082;8.816;2022-10-16T08:18:44;6.60;;;3.40;;
64887;SDS011;51386;53.082;8.816;2022-10-16T08:21:12;4.60;;;3.10;;
64887;SDS011;51386;53.082;8.816;2022-10-16T08:23:46;5.57;;;3.30;;
64887;SDS011;51386;53.082;8.816;2022-10-16T08:26:24;6.17;;;2.97;;
64887;SDS011;51386;53.082;8.816;2022-10-16T08:28:53;6.47;;;2.80;;
64887;SDS011;51386;53.082;8.816;2022-10-16T08:31:21;3.93;;;3.07;;
64887;SDS011;51386;53.082;8.816;2022-10-16T08:33:49;3.23;;;2.80;;
64887;SDS011;51386;53.082;8.816;2022-10-16T08:36:17;3.27;;;2.67;;
64887;SDS011;51386;53.082;8.816;2022-10-16T08:38:47;2.67;;;2.47;;
64887;SDS011;51386;53.082;8.816;2022-10-16T08:41:30;6.30;;;2.70;;
64887;SDS011;51386;53.082;8.816;2022-10-16T08:44:41;4.90;;;2.87;;
64887;SDS011;51386;53.082;8.816;2022-10-16T08:47:44;3.57;;;2.70;;
64887;SDS011;51386;53.082;8.816;2022-10-16T08:50:21;3.97;;;2.10;;
64887;SDS011;51386;53.082;8.816;2022-10-16T08:52:54;3.17;;;2.13;;
64887;SDS011;51386;53.082;8.816;2022-10-16T08:55:28;6.07;;;2.30;;
64887;SDS011;51386;53.082;8.816;2022-10-16T08:58:09;5.63;;;2.10;;
64887;SDS011;51386;53.082;8.816;2022-10-16T09:00:40;3.60;;;2.00;;
64887;SDS011;51386;53.082;8.816;2022-10-16T09:03:15;2.63;;;2.00;;
64887;SDS011;51386;53.082;8.816;2022-10-16T09:06:06;4.33;;;2.10;;
64887;SDS011;51386;53.082;8.816;2022-10-16T09:09:02;3.60;;;1.90;;
64887;SDS011;51386;53.082;8.816;2022-10-16T09:11:56;3.47;;;1.93;;
64887;SDS011;51386;53.082;8.816;2022-10-16T09:14:37;5.77;;;2.47;;
64887;SDS011;51386;53.082;8.816;2022-10-16T09:17:28;2.97;;;1.80;;
64887;SDS011;51386;53.082;8.816;2022-10-16T09:20:13;2.73;;;1.93;;
64887;SDS011;51386;53.082;8.816;2022-10-16T09:22:54;2.70;;;1.90;;
64887;SDS011;51386;53.082;8.816;2022-10-16T09:25:39;3.23;;;1.80;;
64887;SDS011;51386;53.082;8.816;2022-10-16T09:28:14;3.17;;;1.77;;
64887;SDS011;51386;53.082;8.816;2022-10-16T09:30:44;1.73;;;1.50;;
64887;SDS011;51386;53.082;8.816;2022-10-16T09:33:12;2.27;;;1.60;;
64887;SDS011;51386;53.082;8.816;2022-10-16T09:35:42;3.67;;;1.70;;
64887;SDS011;51386;53.082;8.816;2022-10-16T09:38:22;3.37;;;1.47;;
64887;SDS011;51386;53.082;8.816;2022-10-16T09:40:55;1.97;;;1.50;;
64887;SDS011;51386;53.082;8.816;2022-10-16T09:43:31;2.10;;;1.20;;
64887;SDS011;51386;53.082;8.816;2022-10-16T09:46:07;2.80;;;1.83;;
64887;SDS011;51386;53.082;8.816;2022-10-16T09:48:49;3.53;;;1.20;;
64887;SDS011;51386;53.082;8.816;2022-10-16T09:51:22;4.00;;;1.60;;
64887;SDS011;51386;53.082;8.816;2022-10-16T09:53:57;4.87;;;1.70;;
64887;SDS011;51386;53.082;8.816;2022-10-16T09:56:27;2.97;;;1.53;;
64887;SDS011;51386;53.082;8.816;2022-10-16T09:58:59;1.97;;;1.33;;
64887;SDS011;51386;53.082;8.816;2022-10-16T10:01:37;4.23;;;1.70;;
64887;SDS011;51386;53.082;8.816;2022-10-16T10:04:07;3.17;;;1.97;;
64887;SDS011;51386;53.082;8.816;2022-10-16T10:06:37;3.53;;;1.73;;
64887;SDS011;51386;53.082;8.816;2022-10-16T10:09:15;2.17;;;1.40;;
64887;SDS011;51386;53.082;8.816;2022-10-16T10:11:50;3.40;;;1.70;;
64887;SDS011;51386;53.082;8.816;2022-10-16T10:14:22;2.87;;;1.73;;
64887;SDS011;51386;53.082;8.816;2022-10-16T10:17:12;2.67;;;1.40;;
64887;SDS011;51386;53.082;8.816;2022-10-16T10:19:47;3.30;;;1.70;;
64887;SDS011;51386;53.082;8.816;2022-10-16T10:22:22;2.73;;;1.87;;
64887;SDS011;51386;53.082;8.816;2022-10-16T10:24:54;4.50;;;1.73;;
64887;SDS011;51386;53.082;8.816;2022-10-16T10:27:29;5.50;;;2.00;;
64887;SDS011;51386;53.082;8.816;2022-10-16T10:30:13;3.77;;;1.37;;
64887;SDS011;51386;53.082;8.816;2022-10-16T10:32:50;4.87;;;1.60;;
64887;SDS011;51386;53.082;8.816;2022-10-16T10:35:41;3.47;;;1.50;;
64887;SDS011;51386;53.082;8.816;2022-10-16T10:38:20;5.37;;;1.40;;
64887;SDS011;51386;53.082;8.816;2022-10-16T10:41:15;4.33;;;1.57;;
64887;SDS011;51386;53.082;8.816;2022-10-16T10:44:06;3.50;;;1.43;;
64887;SDS011;51386;53.082;8.816;2022-10-16T10:46:47;2.37;;;1.40;;
64887;SDS011;51386;53.082;8.816;2022-10-16T10:49:34;3.23;;;1.37;;
64887;SDS011;51386;53.082;8.816;2022-10-16T10:52:27;4.00;;;1.40;;
64887;SDS011;51386;53.082;8.816;2022-10-16T10:55:20;4.40;;;1.33;;
64887;SDS011;51386;53.082;8.816;2022-10-16T10:58:06;2.07;;;1.37;;
64887;SDS011;51386;53.082;8.816;2022-10-16T11:01:01;3.13;;;1.33;;
64887;SDS011;51386;53.082;8.816;2022-10-16T11:06:40;3.13;;;1.50;;
64887;SDS011;51386;53.082;8.816;2022-10-16T11:09:13;3.03;;;1.43;;
64887;SDS011;51386;53.082;8.816;2022-10-16T11:11:49;4.37;;;1.40;;
64887;SDS011;51386;53.082;8.816;2022-10-16T11:14:26;2.20;;;1.40;;
64887;SDS011;51386;53.082;8.816;2022-10-16T11:17:01;3.30;;;1.57;;
64887;SDS011;51386;53.082;8.816;2022-10-16T11:19:35;2.57;;;1.30;;
64887;SDS011;51386;53.082;8.816;2022-10-16T11:22:13;3.60;;;1.20;;
64887;SDS011;51386;53.082;8.816;2022-10-16T11:24:48;3.10;;;1.40;;
64887;SDS011;51386;53.082;8.816;2022-10-16T11:27:33;2.73;;;1.27;;
64887;SDS011;51386;53.082;8.816;2022-10-16T11:30:06;2.63;;;1.30;;
64887;SDS011;51386;53.082;8.816;2022-10-16T11:35:44;4.90;;;1.50;;
64887;SDS011;51386;53.082;8.816;2022-10-16T11:38:23;10.97;;;1.70;;
64887;SDS011;51386;53.082;8.816;2022-10-16T11:41:00;4.00;;;1.40;;
64887;SDS011;51386;53.082;8.816;2022-10-16T11:43:46;2.77;;;1.50;;
64887;SDS011;51386;53.082;8.816;2022-10-16T11:46:26;4.27;;;1.83;;
64887;SDS011;51386;53.082;8.816;2022-10-16T11:49:00;3.57;;;1.37;;
64887;SDS011;51386;53.082;8.816;2022-10-16T11:51:39;4.47;;;1.50;;
64887;SDS011;51386;53.082;8.816;2022-10-16T11:54:19;2.87;;;1.57;;
64887;SDS011;51386;53.082;8.816;2022-10-16T11:56:55;5.67;;;1.83;;
64887;SDS011;51386;53.082;8.816;2022-10-16T11:59:34;4.63;;;1.37;;
64887;SDS011;51386;53.082;8.816;2022-10-16T12:02:20;5.10;;;1.60;;
64887;SDS011;51386;53.082;8.816;2022-10-16T12:05:06;3.10;;;1.57;;
64887;SDS011;51386;53.082;8.816;2022-10-16T12:07:48;4.13;;;1.23;;
64887;SDS011;51386;53.082;8.816;2022-10-16T12:10:32;3.00;;;1.13;;
64887;SDS011;51386;53.082;8.816;2022-10-16T12:13:31;3.17;;;1.33;;
64887;SDS011;51386;53.082;8.816;2022-10-16T12:16:04;6.87;;;1.97;;
64887;SDS011;51386;53.082;8.816;2022-10-16T12:18:48;3.70;;;1.27;;
64887;SDS011;51386;53.082;8.816;2022-10-16T12:21:36;5.70;;;1.50;;
64887;SDS011;51386;53.082;8.816;2022-10-16T12:24:05;6.53;;;1.63;;
64887;SDS011;51386;53.082;8.816;2022-10-16T12:26:36;2.60;;;1.10;;
64887;SDS011;51386;53.082;8.816;2022-10-16T12:29:13;5.50;;;1.50;;
64887;SDS011;51386;53.082;8.816;2022-10-16T12:31:50;2.83;;;1.77;;
64887;SDS011;51386;53.082;8.816;2022-10-16T12:34:26;3.17;;;1.60;;
64887;SDS011;51386;53.082;8.816;2022-10-16T12:37:08;4.27;;;1.37;;
64887;SDS011;51386;53.082;8.816;2022-10-16T12:39:41;2.87;;;1.17;;
64887;SDS011;51386;53.082;8.816;2022-10-16T12:42:23;1.93;;;1.20;;
64887;SDS011;51386;53.082;8.816;2022-10-16T12:45:00;3.80;;;1.70;;
64887;SDS011;51386;53.082;8.816;2022-10-16T12:47:38;3.67;;;1.57;;
64887;SDS011;51386;53.082;8.816;2022-10-16T12:50:25;3.97;;;2.00;;
64887;SDS011;51386;53.082;8.816;2022-10-16T12:52:59;3.17;;;1.80;;
64887;SDS011;51386;53.082;8.816;2022-10-16T12:55:32;3.97;;;2.07;;
64887;SDS011;51386;53.082;8.816;2022-10-16T12:58:23;4.53;;;1.80;;
64887;SDS011;51386;53.082;8.816;2022-10-16T13:01:12;3.97;;;2.13;;
64887;SDS011;51386;53.082;8.816;2022-10-16T13:03:58;3.57;;;1.40;;
64887;SDS011;51386;53.082;8.816;2022-10-16T13:07:15;3.03;;;1.60;;
64887;SDS011;51386;53.082;8.816;2022-10-16T13:10:10;4.53;;;1.87;;
64887;SDS011;51386;53.082;8.816;2022-10-16T13:13:00;4.23;;;1.50;;
64887;SDS011;51386;53.082;8.816;2022-10-16T13:16:10;3.27;;;1.57;;
64887;SDS011;51386;53.082;8.816;2022-10-16T13:18:50;5.53;;;1.87;;
64887;SDS011;51386;53.082;8.816;2022-10-16T13:21:38;5.10;;;2.20;;
64887;SDS011;51386;53.082;8.816;2022-10-16T13:24:19;4.40;;;1.30;;
64887;SDS011;51386;53.082;8.816;2022-10-16T13:27:16;5.10;;;1.70;;
64887;SDS011;51386;53.082;8.816;2022-10-16T13:30:02;4.53;;;1.90;;
64887;SDS011;51386;53.082;8.816;2022-10-16T13:32:40;4.10;;;1.70;;
64887;SDS011;51386;53.082;8.816;2022-10-16T13:35:19;2.67;;;1.30;;
64887;SDS011;51386;53.082;8.816;2022-10-16T13:37:50;3.33;;;1.80;;
64887;SDS011;51386;53.082;8.816;2022-10-16T13:40:18;4.33;;;1.73;;
64887;SDS011;51386;53.082;8.816;2022-10-16T13:42:49;5.17;;;1.70;;
64887;SDS011;51386;53.082;8.816;2022-10-16T13:45:21;7.67;;;1.70;;
64887;SDS011;51386;53.082;8.816;2022-10-16T13:48:01;5.00;;;1.53;;
64887;SDS011;51386;53.082;8.816;2022-10-16T13:50:29;4.80;;;1.70;;
64887;SDS011;51386;53.082;8.816;2022-10-16T13:53:04;4.67;;;1.80;;
64887;SDS011;51386;53.082;8.816;2022-10-16T13:55:32;3.57;;;1.80;;
64887;SDS011;51386;53.082;8.816;2022-10-16T13:58:07;2.67;;;1.50;;
64887;SDS011;51386;53.082;8.816;2022-10-16T14:00:39;6.47;;;2.17;;
64887;SDS011;51386;53.082;8.816;2022-10-16T14:03:20;5.57;;;2.03;;
64887;SDS011;51386;53.082;8.816;2022-10-16T14:05:49;5.33;;;2.30;;
64887;SDS011;51386;53.082;8.816;2022-10-16T14:08:20;5.50;;;2.30;;
64887;SDS011;51386;53.082;8.816;2022-10-16T14:10:49;2.63;;;1.60;;
64887;SDS011;51386;53.082;8.816;2022-10-16T14:13:21;3.77;;;1.60;;
64887;SDS011;51386;53.082;8.816;2022-10-16T14:15:59;3.87;;;1.57;;
64887;SDS011;51386;53.082;8.816;2022-10-16T14:18:33;6.53;;;1.80;;
64887;SDS011;51386;53.082;8.816;2022-10-16T14:21:05;6.20;;;1.80;;
64887;SDS011;51386;53.082;8.816;2022-10-16T14:23:41;4.87;;;2.10;;
64887;SDS011;51386;53.082;8.816;2022-10-16T14:26:13;7.80;;;2.20;;
64887;SDS011;51386;53.082;8.816;2022-10-16T14:28:44;4.17;;;1.90;;
64887;SDS011;51386;53.082;8.816;2022-10-16T14:31:23;5.23;;;1.70;;
64887;SDS011;51386;53.082;8.816;2022-10-16T14:33:57;6.70;;;2.10;;
64887;SDS011;51386;53.082;8.816;2022-10-16T14:36:25;2.73;;;1.43;;
64887;SDS011;51386;53.082;8.816;2022-10-16T14:38:59;4.70;;;1.77;;
64887;SDS011;51386;53.082;8.816;2022-10-16T14:41:30;4.33;;;1.73;;
64887;SDS011;51386;53.082;8.816;2022-10-16T14:44:09;4.23;;;1.80;;
64887;SDS011;51386;53.082;8.816;2022-10-16T14:46:40;5.80;;;1.47;;
64887;SDS011;51386;53.082;8.816;2022-10-16T14:49:15;3.77;;;1.87;;
64887;SDS011;51386;53.082;8.816;2022-10-16T14:51:46;5.07;;;2.13;;
64887;SDS011;51386;53.082;8.816;2022-10-16T14:54:14;5.13;;;1.93;;
64887;SDS011;51386;53.082;8.816;2022-10-16T14:56:46;4.57;;;1.57;;
64887;SDS011;51386;53.082;8.816;2022-10-16T14:59:17;4.03;;;1.67;;
64887;SDS011;51386;53.082;8.816;2022-10-16T15:01:59;3.30;;;2.00;;
64887;SDS011;51386;53.082;8.816;2022-10-16T15:04:42;2.87;;;1.60;;
64887;SDS011;51386;53.082;8.816;2022-10-16T15:07:09;3.57;;;1.40;;
64887;SDS011;51386;53.082;8.816;2022-10-16T15:09:37;3.93;;;1.77;;
64887;SDS011;51386;53.082;8.816;2022-10-16T15:12:04;5.47;;;1.63;;
64887;SDS011;51386;53.082;8.816;2022-10-16T15:14:32;6.03;;;2.20;;
64887;SDS011;51386;53.082;8.816;2022-10-16T15:17:01;4.50;;;2.33;;
64887;SDS011;51386;53.082;8.816;2022-10-16T15:19:28;7.70;;;3.17;;
64887;SDS011;51386;53.082;8.816;2022-10-16T15:21:56;3.47;;;2.07;;
64887;SDS011;51386;53.082;8.816;2022-10-16T15:24:23;5.10;;;2.20;;
64887;SDS011;51386;53.082;8.816;2022-10-16T15:26:54;5.13;;;1.73;;
64887;SDS011;51386;53.082;8.816;2022-10-16T15:29:22;3.77;;;1.80;;